createdAt,value
2023-04-27T00:04:08.454Z,22.4
2023-04-27T00:10:02.327Z,22.4
2023-04-27T00:15:53.443Z,22.4
2023-04-27T00:21:44.838Z,22.4
2023-04-27T00:27:21.564Z,22.3
2023-04-27T00:33:12.802Z,22.3
2023-04-27T00:39:03.105Z,22.3
2023-04-27T00:44:56.326Z,22.3
2023-04-27T00:50:48.298Z,22.2
2023-04-27T00:56:38.764Z,22.2
2023-04-27T01:02:15.593Z,22.2
2023-04-27T01:08:09.426Z,22.1
2023-04-27T01:14:00.579Z,22.1
2023-04-27T01:19:52.847Z,22.1
2023-04-27T01:25:46.082Z,22.1
2023-04-27T01:31:37.298Z,22.1
2023-04-27T01:37:30.261Z,22
2023-04-27T01:43:21.929Z,22
2023-04-27T01:49:12.766Z,22
2023-04-27T01:55:05.152Z,21.9
2023-04-27T02:00:55.871Z,21.9
2023-04-27T02:06:33.073Z,21.9
2023-04-27T02:12:09.710Z,21.9
2023-04-27T02:18:02.063Z,19.1
2023-04-27T02:23:52.897Z,18.4
2023-04-27T02:29:49.589Z,19.4
2023-04-27T02:35:42.651Z,19.1
2023-04-27T02:41:33.286Z,19.5
2023-04-27T02:47:09.456Z,19.8
2023-04-27T02:53:01.688Z,19.9
2023-04-27T02:58:52.508Z,20.3
2023-04-27T03:04:47.050Z,20.4
2023-04-27T03:10:39.597Z,20.6
2023-04-27T03:16:32.309Z,20.6
2023-04-27T03:22:24.801Z,20.6
2023-04-27T03:28:00.706Z,20.6
2023-04-27T03:33:36.721Z,20.6
2023-04-27T03:39:13.010Z,20.6
2023-04-27T03:45:05.084Z,20.6
2023-04-27T03:50:55.659Z,20.6
2023-04-27T03:56:47.614Z,20.6
2023-04-27T04:02:39.450Z,20.5
2023-04-27T04:08:32.168Z,20.5
2023-04-27T04:14:23.917Z,20.5
2023-04-27T04:20:15.510Z,20.4
2023-04-27T04:26:06.876Z,20.6
2023-04-27T04:31:43.982Z,20.4
2023-04-27T04:37:20.234Z,20.5
2023-04-27T04:42:58.886Z,20.4
2023-04-27T04:48:52.700Z,20.5
2023-04-27T04:54:45.668Z,20.6
2023-04-27T05:00:38.611Z,20.7
2023-04-27T05:06:32.516Z,20.8
2023-04-27T05:12:27.339Z,20.8
2023-04-27T05:18:20.280Z,20.8
2023-04-27T05:23:58.156Z,20.9
2023-04-27T05:29:49.735Z,20.9
2023-04-27T05:35:40.993Z,20.9
2023-04-27T05:41:02.007Z,20.9
2023-04-27T05:46:38.781Z,21
2023-04-27T05:52:15.176Z,21
2023-04-27T05:57:57.234Z,21
2023-04-27T06:03:38.430Z,21
2023-04-27T06:09:16.509Z,21
2023-04-27T06:14:52.845Z,21
2023-04-27T06:20:29.998Z,21
2023-04-27T06:26:06.013Z,21.1
2023-04-27T06:31:57.922Z,21.1
2023-04-27T06:37:49.664Z,21.1
2023-04-27T06:43:42.130Z,21.1
2023-04-27T06:49:35.279Z,21
2023-04-27T06:55:26.957Z,21
2023-04-27T07:01:20.234Z,21
2023-04-27T07:07:13.530Z,21
2023-04-27T07:13:17.707Z,21
2023-04-27T07:19:08.500Z,21.1
2023-04-27T07:25:02.659Z,21.1
2023-04-27T07:31:06.640Z,21.1
2023-04-27T07:37:13.465Z,21.1
2023-04-27T07:43:06.343Z,21.1
2023-04-27T07:48:58.144Z,21.1
2023-04-27T07:54:49.624Z,21.1
2023-04-27T08:00:40.816Z,21.1
2023-04-27T08:28:23.175Z,21.2
2023-04-27T08:39:03.988Z,21.2
2023-04-27T08:44:39.284Z,21.2
2023-04-27T08:50:11.013Z,21.2
2023-04-27T08:55:49.576Z,21.2
2023-04-27T09:01:42.032Z,21.3
2023-04-27T09:07:48.686Z,21.2
2023-04-27T09:13:39.743Z,21.3
2023-04-27T09:19:30.495Z,21.3
2023-04-27T09:24:36.386Z,21.3
2023-04-27T09:30:28.086Z,21.3
2023-04-27T09:36:19.880Z,21.3
2023-04-27T09:42:11.244Z,21.3
2023-04-27T09:48:05.165Z,21.3
2023-04-27T09:53:40.198Z,21.3
2023-04-27T09:59:31.939Z,21.3
2023-04-27T10:05:55.143Z,21.3
2023-04-27T10:11:45.887Z,21.3
2023-04-27T10:17:37.712Z,21.3
2023-04-27T10:23:31.781Z,21.2
2023-04-27T10:29:24.334Z,21.2
2023-04-27T10:35:16.221Z,21.2
2023-04-27T10:41:23.200Z,21.2
2023-04-27T10:47:13.936Z,21.2
2023-04-27T10:53:06.028Z,21.2
2023-04-27T10:58:51.034Z,21.2
2023-04-27T11:04:27.902Z,21.2
2023-04-27T11:10:21.312Z,21.2
2023-04-27T11:15:57.422Z,21.2
2023-04-27T11:21:48.289Z,21.2
2023-04-27T11:27:40.211Z,21.2
2023-04-27T12:12:24.788Z,21.1
2023-04-27T12:23:23.104Z,21.1
2023-04-27T12:34:38.905Z,21.1
2023-04-27T12:40:30.981Z,21.1
2023-04-27T12:46:21.750Z,21.1
2023-04-27T12:52:42.321Z,21
2023-04-27T12:58:49.131Z,21.1
2023-04-27T13:04:43.654Z,21
2023-04-27T13:10:35.963Z,21
2023-04-27T13:16:28.678Z,21
2023-04-27T13:22:26.056Z,21
2023-04-27T13:28:18.845Z,21
2023-04-27T13:34:25.233Z,21
2023-04-27T13:40:16.272Z,20.9
2023-04-27T13:46:08.486Z,21
2023-04-27T13:51:45.363Z,21
2023-04-27T13:57:36.242Z,21
2023-04-27T14:03:29.152Z,21
2023-04-27T14:09:22.242Z,20.9
2023-04-27T14:15:31.064Z,20.9
2023-04-27T14:21:34.197Z,20.9
2023-04-27T14:27:26.060Z,20.9
2023-04-27T14:33:16.754Z,20.9
2023-04-27T14:39:09.234Z,20.9
2023-04-27T14:45:00.696Z,20.9
2023-04-27T14:51:17.491Z,20.9
2023-04-27T14:57:09.457Z,20.9
2023-04-27T15:03:01.734Z,20.9
2023-04-27T15:08:53.716Z,29.1
2023-04-27T15:14:46.360Z,34.6
2023-04-27T15:20:38.629Z,36.6
2023-04-27T15:26:30.586Z,38.4
2023-04-27T15:32:24.601Z,36.3
2023-04-27T15:38:16.342Z,35.9
2023-04-27T15:44:08.015Z,37.4
2023-04-27T15:49:53.951Z,36.3
2023-04-27T15:55:49.929Z,39.2
2023-04-27T16:01:44.319Z,39.8
2023-04-27T16:07:37.531Z,39.9
2023-04-27T16:13:32.737Z,39.4
2023-04-27T16:19:08.977Z,37.9
2023-04-27T16:25:00.782Z,38
2023-04-27T16:30:52.467Z,36.6
2023-04-27T16:36:43.732Z,39.1
2023-04-27T16:42:20.626Z,39.9
2023-04-27T16:48:13.181Z,40.2
2023-04-27T16:54:04.875Z,39.8
2023-04-27T16:59:41.497Z,39.4
2023-04-27T17:05:47.270Z,37.5
2023-04-27T17:11:39.825Z,37.9
2023-04-27T17:17:31.977Z,36.4
2023-04-27T17:23:27.133Z,35.3
2023-04-27T17:29:18.465Z,34.6
2023-04-27T17:35:15.718Z,33.8
2023-04-27T17:41:07.854Z,34.9
2023-04-27T17:46:58.814Z,39.5
2023-04-27T17:52:51.095Z,40.6
2023-04-27T17:58:28.213Z,40.5
2023-04-27T18:04:06.111Z,40.6
2023-04-27T18:09:28.756Z,40.2
2023-04-27T18:15:08.726Z,39.9
2023-04-27T18:21:15.428Z,39.8
2023-04-27T18:27:07.635Z,39.1
2023-04-27T18:33:02.091Z,39.9
2023-04-27T18:38:53.641Z,39.5
2023-04-27T18:44:45.698Z,39.4
2023-04-27T18:50:23.115Z,40.1
2023-04-27T18:56:14.338Z,39.6
2023-04-27T19:02:07.414Z,38
2023-04-27T19:08:20.055Z,39.2
2023-04-27T19:14:16.685Z,38
2023-04-27T19:20:20.346Z,38.2
2023-04-27T19:26:29.736Z,36.8
2023-04-27T19:32:23.279Z,35.2
2023-04-27T19:38:19.666Z,33.8
2023-04-27T19:44:00.645Z,32.6
2023-04-27T19:49:53.742Z,31.9
2023-04-27T19:55:47.206Z,31.2
2023-04-27T20:01:39.994Z,30.7
2023-04-27T20:07:38.869Z,30.2
2023-04-27T20:13:47.591Z,29.8
2023-04-27T20:19:25.803Z,29.4
2023-04-27T20:25:06.332Z,29.2
2023-04-27T20:30:59.680Z,28.9
2023-04-27T20:37:06.068Z,28.6
2023-04-27T20:42:59.702Z,28.4
2023-04-27T20:48:20.876Z,28.2
2023-04-27T20:54:26.705Z,28
2023-04-27T21:00:18.785Z,27.8
2023-04-27T21:06:12.752Z,27.6
2023-04-27T21:12:07.269Z,27.4
2023-04-27T21:17:59.865Z,27.1
2023-04-27T21:24:13.482Z,26.9
2023-04-27T21:30:05.338Z,26.9
2023-04-27T21:36:00.360Z,26.9
2023-04-27T21:41:52.102Z,26.7
2023-04-27T21:47:44.119Z,26.5
2023-04-27T21:53:20.293Z,26.2
2023-04-27T21:59:15.895Z,25.9
2023-04-27T22:05:09.120Z,25.6
2023-04-27T22:10:31.968Z,25.4
2023-04-27T22:16:36.092Z,25.2
2023-04-27T22:22:28.212Z,24.9
2023-04-27T22:28:33.150Z,24.7
2023-04-27T22:34:25.009Z,24.5
2023-04-27T22:40:24.139Z,24.4
2023-04-27T22:46:14.612Z,24.1
2023-04-27T22:52:05.725Z,24
2023-04-27T22:57:56.805Z,23.9
2023-04-27T23:03:49.351Z,23.8
2023-04-27T23:09:41.374Z,23.6
2023-04-27T23:15:33.095Z,23.5
2023-04-27T23:21:30.923Z,23.4
2023-04-27T23:27:22.825Z,23.3
2023-04-27T23:33:14.887Z,23.2
2023-04-27T23:38:50.481Z,23.1
2023-04-27T23:44:26.294Z,23.1
2023-04-27T23:50:18.241Z,23
2023-04-27T23:55:54.152Z,22.9
